sensor_id;sensor_type;location;lat;lon;timestamp;pressure;altitude;pressure_sealevel;temperature;humidity
68873;BME280;55907;50.806;12.882;2023-07-31T00:01:08;971.8;;;15.4;68.9
68873;BME280;55907;50.806;12.882;2023-07-31T00:04:10;971.8;;;15.4;69.0
68873;BME280;55907;50.806;12.882;2023-07-31T00:07:11;971.8;;;15.4;68.9
68873;BME280;55907;50.806;12.882;2023-07-31T00:10:13;971.7;;;15.4;68.7
68873;BME280;55907;50.806;12.882;2023-07-31T00:13:14;971.7;;;15.4;68.7
68873;BME280;55907;50.806;12.882;2023-07-31T00:16:16;971.7;;;15.4;68.9
68873;BME280;55907;50.806;12.882;2023-07-31T00:19:17;971.7;;;15.4;68.8
68873;BME280;55907;50.806;12.882;2023-07-31T00:22:19;971.6;;;15.4;68.8
68873;BME280;55907;50.806;12.882;2023-07-31T00:25:20;971.6;;;15.4;68.5
68873;BME280;55907;50.806;12.882;2023-07-31T00:28:21;971.6;;;15.4;68.4
68873;BME280;55907;50.806;12.882;2023-07-31T00:31:23;971.5;;;15.5;68.0
68873;BME280;55907;50.806;12.882;2023-07-31T00:34:24;971.5;;;15.5;67.8
68873;BME280;55907;50.806;12.882;2023-07-31T00:37:26;971.5;;;15.6;67.3
68873;BME280;55907;50.806;12.882;2023-07-31T00:40:27;971.4;;;15.6;67.0
68873;BME280;55907;50.806;12.882;2023-07-31T00:43:29;971.3;;;15.6;67.0
68873;BME280;55907;50.806;12.882;2023-07-31T00:46:30;971.3;;;15.6;67.0
68873;BME280;55907;50.806;12.882;2023-07-31T00:49:32;971.3;;;15.6;67.2
68873;BME280;55907;50.806;12.882;2023-07-31T00:52:35;971.2;;;15.6;67.3
68873;BME280;55907;50.806;12.882;2023-07-31T00:55:35;971.3;;;15.6;67.4
68873;BME280;55907;50.806;12.882;2023-07-31T00:58:36;971.2;;;15.6;67.0
68873;BME280;55907;50.806;12.882;2023-07-31T01:01:38;971.2;;;15.7;66.8
68873;BME280;55907;50.806;12.882;2023-07-31T01:04:41;971.2;;;15.8;66.6
68873;BME280;55907;50.806;12.882;2023-07-31T01:07:44;971.2;;;15.9;66.6
68873;BME280;55907;50.806;12.882;2023-07-31T01:10:46;971.2;;;15.9;66.1
68873;BME280;55907;50.806;12.882;2023-07-31T01:13:44;971.2;;;16.0;66.1
68873;BME280;55907;50.806;12.882;2023-07-31T01:16:45;971.2;;;16.0;65.9
68873;BME280;55907;50.806;12.882;2023-07-31T01:19:47;971.2;;;16.1;65.6
68873;BME280;55907;50.806;12.882;2023-07-31T01:23:03;971.2;;;16.1;65.5
68873;BME280;55907;50.806;12.882;2023-07-31T01:25:56;971.2;;;16.2;65.1
68873;BME280;55907;50.806;12.882;2023-07-31T01:28:55;971.2;;;16.2;65.1
68873;BME280;55907;50.806;12.882;2023-07-31T01:31:54;971.2;;;16.2;64.7
68873;BME280;55907;50.806;12.882;2023-07-31T01:34:55;971.1;;;16.3;64.1
68873;BME280;55907;50.806;12.882;2023-07-31T01:37:55;971.1;;;16.3;64.3
68873;BME280;55907;50.806;12.882;2023-07-31T01:40:57;971.2;;;16.3;64.0
68873;BME280;55907;50.806;12.882;2023-07-31T01:43:58;971.1;;;16.4;63.2
68873;BME280;55907;50.806;12.882;2023-07-31T01:47:00;971.2;;;16.4;63.7
68873;BME280;55907;50.806;12.882;2023-07-31T01:50:01;971.2;;;16.4;63.9
68873;BME280;55907;50.806;12.882;2023-07-31T01:53:02;971.2;;;16.4;64.5
68873;BME280;55907;50.806;12.882;2023-07-31T01:56:04;971.2;;;16.4;64.7
68873;BME280;55907;50.806;12.882;2023-07-31T01:59:05;971.2;;;16.4;65.0
68873;BME280;55907;50.806;12.882;2023-07-31T02:02:07;971.2;;;16.3;65.8
68873;BME280;55907;50.806;12.882;2023-07-31T02:05:09;971.2;;;16.3;66.5
68873;BME280;55907;50.806;12.882;2023-07-31T02:08:10;971.1;;;16.3;66.9
68873;BME280;55907;50.806;12.882;2023-07-31T02:11:11;971.1;;;16.2;67.8
68873;BME280;55907;50.806;12.882;2023-07-31T02:14:13;971.2;;;16.1;68.9
68873;BME280;55907;50.806;12.882;2023-07-31T02:17:14;971.2;;;16.0;70.0
68873;BME280;55907;50.806;12.882;2023-07-31T02:20:16;971.1;;;15.9;71.1
68873;BME280;55907;50.806;12.882;2023-07-31T02:23:17;971.2;;;15.7;72.2
68873;BME280;55907;50.806;12.882;2023-07-31T02:26:19;971.1;;;15.5;74.6
68873;BME280;55907;50.806;12.882;2023-07-31T02:29:20;971.1;;;15.4;76.6
68873;BME280;55907;50.806;12.882;2023-07-31T02:32:22;971.1;;;15.2;77.2
68873;BME280;55907;50.806;12.882;2023-07-31T02:35:23;971.1;;;15.1;79.4
68873;BME280;55907;50.806;12.882;2023-07-31T02:38:24;971.1;;;15.0;79.8
68873;BME280;55907;50.806;12.882;2023-07-31T02:41:26;971.0;;;14.9;79.7
68873;BME280;55907;50.806;12.882;2023-07-31T02:44:27;970.9;;;14.8;80.7
68873;BME280;55907;50.806;12.882;2023-07-31T02:47:29;970.9;;;14.7;82.4
68873;BME280;55907;50.806;12.882;2023-07-31T02:50:30;970.9;;;14.6;82.5
68873;BME280;55907;50.806;12.882;2023-07-31T02:53:32;970.9;;;14.6;83.8
68873;BME280;55907;50.806;12.882;2023-07-31T02:56:33;970.9;;;14.6;82.6
68873;BME280;55907;50.806;12.882;2023-07-31T02:59:35;970.9;;;14.5;85.1
68873;BME280;55907;50.806;12.882;2023-07-31T03:02:36;970.8;;;14.5;84.7
68873;BME280;55907;50.806;12.882;2023-07-31T03:05:38;970.8;;;14.4;85.8
68873;BME280;55907;50.806;12.882;2023-07-31T03:08:39;970.8;;;14.5;85.1
68873;BME280;55907;50.806;12.882;2023-07-31T03:11:41;970.8;;;14.5;85.5
68873;BME280;55907;50.806;12.882;2023-07-31T03:14:42;970.8;;;14.4;87.3
68873;BME280;55907;50.806;12.882;2023-07-31T03:17:44;970.7;;;14.4;87.3
68873;BME280;55907;50.806;12.882;2023-07-31T03:20:45;970.8;;;14.4;88.5
68873;BME280;55907;50.806;12.882;2023-07-31T03:23:47;970.8;;;14.4;89.0
68873;BME280;55907;50.806;12.882;2023-07-31T03:26:48;970.8;;;14.3;90.0
68873;BME280;55907;50.806;12.882;2023-07-31T03:29:50;970.7;;;14.3;90.9
68873;BME280;55907;50.806;12.882;2023-07-31T03:32:51;970.7;;;14.3;90.7
68873;BME280;55907;50.806;12.882;2023-07-31T03:35:53;970.8;;;14.3;91.6
68873;BME280;55907;50.806;12.882;2023-07-31T03:38:54;970.8;;;14.3;92.7
68873;BME280;55907;50.806;12.882;2023-07-31T03:41:56;970.7;;;14.2;92.4
68873;BME280;55907;50.806;12.882;2023-07-31T03:44:57;970.7;;;14.2;92.9
68873;BME280;55907;50.806;12.882;2023-07-31T03:47:59;970.8;;;14.3;93.5
68873;BME280;55907;50.806;12.882;2023-07-31T03:51:00;970.7;;;14.3;93.9
68873;BME280;55907;50.806;12.882;2023-07-31T03:54:02;970.6;;;14.2;93.0
68873;BME280;55907;50.806;12.882;2023-07-31T03:57:04;970.7;;;14.3;93.0
68873;BME280;55907;50.806;12.882;2023-07-31T04:00:05;970.7;;;14.3;93.5
68873;BME280;55907;50.806;12.882;2023-07-31T04:03:06;970.6;;;14.3;93.2
68873;BME280;55907;50.806;12.882;2023-07-31T04:06:08;970.6;;;14.3;93.5
68873;BME280;55907;50.806;12.882;2023-07-31T04:09:09;970.6;;;14.4;93.8
68873;BME280;55907;50.806;12.882;2023-07-31T04:12:11;970.6;;;14.4;93.9
68873;BME280;55907;50.806;12.882;2023-07-31T04:15:12;970.6;;;14.4;94.0
68873;BME280;55907;50.806;12.882;2023-07-31T04:18:13;970.5;;;14.4;93.9
68873;BME280;55907;50.806;12.882;2023-07-31T04:21:15;970.5;;;14.4;94.1
68873;BME280;55907;50.806;12.882;2023-07-31T04:24:16;970.5;;;14.4;93.2
68873;BME280;55907;50.806;12.882;2023-07-31T04:27:18;970.4;;;14.5;93.3
68873;BME280;55907;50.806;12.882;2023-07-31T04:30:19;970.4;;;14.5;93.1
68873;BME280;55907;50.806;12.882;2023-07-31T04:33:21;970.4;;;14.6;92.9
68873;BME280;55907;50.806;12.882;2023-07-31T04:36:22;970.4;;;14.6;93.2
68873;BME280;55907;50.806;12.882;2023-07-31T04:39:24;970.4;;;14.6;93.6
68873;BME280;55907;50.806;12.882;2023-07-31T04:42:25;970.3;;;14.7;91.6
68873;BME280;55907;50.806;12.882;2023-07-31T04:45:27;970.3;;;14.8;91.6
68873;BME280;55907;50.806;12.882;2023-07-31T04:48:28;970.2;;;14.8;91.2
68873;BME280;55907;50.806;12.882;2023-07-31T04:51:30;970.2;;;14.9;91.2
68873;BME280;55907;50.806;12.882;2023-07-31T04:54:31;970.2;;;14.9;90.8
68873;BME280;55907;50.806;12.882;2023-07-31T04:57:33;970.1;;;15.0;89.3
68873;BME280;55907;50.806;12.882;2023-07-31T05:00:34;970.1;;;15.1;89.1
68873;BME280;55907;50.806;12.882;2023-07-31T05:03:36;970.1;;;15.2;88.9
68873;BME280;55907;50.806;12.882;2023-07-31T05:06:37;970.1;;;15.3;88.1
68873;BME280;55907;50.806;12.882;2023-07-31T05:09:39;970.1;;;15.4;86.9
68873;BME280;55907;50.806;12.882;2023-07-31T05:12:40;970.1;;;15.5;87.0
68873;BME280;55907;50.806;12.882;2023-07-31T05:15:42;970.2;;;15.5;86.2
68873;BME280;55907;50.806;12.882;2023-07-31T05:18:43;970.1;;;15.5;86.4
68873;BME280;55907;50.806;12.882;2023-07-31T05:21:45;970.1;;;15.5;86.2
68873;BME280;55907;50.806;12.882;2023-07-31T05:24:46;970.1;;;15.5;86.0
68873;BME280;55907;50.806;12.882;2023-07-31T05:27:48;970.1;;;15.5;85.9
68873;BME280;55907;50.806;12.882;2023-07-31T05:30:49;970.1;;;15.5;86.2
68873;BME280;55907;50.806;12.882;2023-07-31T05:33:50;970.0;;;15.5;86.6
68873;BME280;55907;50.806;12.882;2023-07-31T05:36:52;970.1;;;15.5;87.2
68873;BME280;55907;50.806;12.882;2023-07-31T05:39:53;970.2;;;15.4;87.2
68873;BME280;55907;50.806;12.882;2023-07-31T05:42:55;970.1;;;15.4;86.7
68873;BME280;55907;50.806;12.882;2023-07-31T05:45:56;970.1;;;15.5;86.3
68873;BME280;55907;50.806;12.882;2023-07-31T05:48:58;970.2;;;15.5;86.4
68873;BME280;55907;50.806;12.882;2023-07-31T05:51:59;970.1;;;15.5;86.4
68873;BME280;55907;50.806;12.882;2023-07-31T05:55:01;970.0;;;15.5;86.4
68873;BME280;55907;50.806;12.882;2023-07-31T05:58:02;970.1;;;15.5;86.1
68873;BME280;55907;50.806;12.882;2023-07-31T06:01:04;970.1;;;15.5;85.3
68873;BME280;55907;50.806;12.882;2023-07-31T06:04:05;970.1;;;15.6;85.3
68873;BME280;55907;50.806;12.882;2023-07-31T06:07:07;970.1;;;15.6;84.8
68873;BME280;55907;50.806;12.882;2023-07-31T06:10:09;970.1;;;15.7;84.4
68873;BME280;55907;50.806;12.882;2023-07-31T06:13:10;970.1;;;15.9;83.8
68873;BME280;55907;50.806;12.882;2023-07-31T06:16:11;970.1;;;15.9;82.9
68873;BME280;55907;50.806;12.882;2023-07-31T06:19:13;970.0;;;16.0;83.0
68873;BME280;55907;50.806;12.882;2023-07-31T06:22:14;970.1;;;16.1;83.0
68873;BME280;55907;50.806;12.882;2023-07-31T06:25:16;970.0;;;16.2;82.5
68873;BME280;55907;50.806;12.882;2023-07-31T06:28:17;970.1;;;16.2;81.4
68873;BME280;55907;50.806;12.882;2023-07-31T06:31:19;969.9;;;16.2;81.6
68873;BME280;55907;50.806;12.882;2023-07-31T06:34:20;970.0;;;16.3;81.4
68873;BME280;55907;50.806;12.882;2023-07-31T06:37:22;970.1;;;16.4;81.0
68873;BME280;55907;50.806;12.882;2023-07-31T06:40:23;970.1;;;16.4;80.1
68873;BME280;55907;50.806;12.882;2023-07-31T06:43:24;970.1;;;16.5;79.9
68873;BME280;55907;50.806;12.882;2023-07-31T06:46:26;970.1;;;16.6;79.7
68873;BME280;55907;50.806;12.882;2023-07-31T06:49:27;970.1;;;16.7;78.6
68873;BME280;55907;50.806;12.882;2023-07-31T06:52:29;970.0;;;16.8;78.4
68873;BME280;55907;50.806;12.882;2023-07-31T06:55:30;970.0;;;16.8;78.0
68873;BME280;55907;50.806;12.882;2023-07-31T06:58:32;970.0;;;16.8;77.0
68873;BME280;55907;50.806;12.882;2023-07-31T07:01:33;970.1;;;16.9;77.2
68873;BME280;55907;50.806;12.882;2023-07-31T07:04:35;970.1;;;17.0;76.0
68873;BME280;55907;50.806;12.882;2023-07-31T07:07:36;970.1;;;17.1;75.4
68873;BME280;55907;50.806;12.882;2023-07-31T07:10:38;970.2;;;17.3;74.9
68873;BME280;55907;50.806;12.882;2023-07-31T07:13:39;970.1;;;17.4;73.7
68873;BME280;55907;50.806;12.882;2023-07-31T07:16:41;970.1;;;17.5;73.4
68873;BME280;55907;50.806;12.882;2023-07-31T07:19:42;970.1;;;17.5;73.3
68873;BME280;55907;50.806;12.882;2023-07-31T07:22:43;970.1;;;17.5;73.2
68873;BME280;55907;50.806;12.882;2023-07-31T07:25:46;970.1;;;17.4;72.6
68873;BME280;55907;50.806;12.882;2023-07-31T07:28:46;970.2;;;17.3;73.4
68873;BME280;55907;50.806;12.882;2023-07-31T07:31:48;970.2;;;17.3;73.2
68873;BME280;55907;50.806;12.882;2023-07-31T07:34:49;970.1;;;17.3;73.2
68873;BME280;55907;50.806;12.882;2023-07-31T07:37:51;970.2;;;17.4;72.8
68873;BME280;55907;50.806;12.882;2023-07-31T07:40:52;970.2;;;17.5;72.7
68873;BME280;55907;50.806;12.882;2023-07-31T07:43:54;970.1;;;17.6;72.1
68873;BME280;55907;50.806;12.882;2023-07-31T07:46:55;970.2;;;17.8;71.0
68873;BME280;55907;50.806;12.882;2023-07-31T07:49:57;970.2;;;17.9;71.2
68873;BME280;55907;50.806;12.882;2023-07-31T07:52:58;970.2;;;18.0;69.5
68873;BME280;55907;50.806;12.882;2023-07-31T07:55:59;970.2;;;18.0;70.2
68873;BME280;55907;50.806;12.882;2023-07-31T07:59:01;970.1;;;18.0;69.7
68873;BME280;55907;50.806;12.882;2023-07-31T08:02:02;970.2;;;18.1;69.6
68873;BME280;55907;50.806;12.882;2023-07-31T08:05:04;970.3;;;18.1;70.2
68873;BME280;55907;50.806;12.882;2023-07-31T08:08:05;970.3;;;18.0;69.5
68873;BME280;55907;50.806;12.882;2023-07-31T08:11:07;970.3;;;18.0;69.5
68873;BME280;55907;50.806;12.882;2023-07-31T08:14:08;970.3;;;17.9;69.8
68873;BME280;55907;50.806;12.882;2023-07-31T08:17:10;970.3;;;17.9;70.3
68873;BME280;55907;50.806;12.882;2023-07-31T08:20:11;970.3;;;17.9;69.8
68873;BME280;55907;50.806;12.882;2023-07-31T08:23:13;970.3;;;17.8;70.0
68873;BME280;55907;50.806;12.882;2023-07-31T08:26:15;970.3;;;17.9;70.2
68873;BME280;55907;50.806;12.882;2023-07-31T08:29:15;970.3;;;17.9;70.0
68873;BME280;55907;50.806;12.882;2023-07-31T08:32:17;970.4;;;17.9;69.9
68873;BME280;55907;50.806;12.882;2023-07-31T08:35:18;970.4;;;17.9;70.1
68873;BME280;55907;50.806;12.882;2023-07-31T08:38:20;970.4;;;17.9;70.1
68873;BME280;55907;50.806;12.882;2023-07-31T08:41:21;970.3;;;17.9;69.6
68873;BME280;55907;50.806;12.882;2023-07-31T08:44:23;970.4;;;17.9;69.7
68873;BME280;55907;50.806;12.882;2023-07-31T08:47:25;970.4;;;18.0;69.7
68873;BME280;55907;50.806;12.882;2023-07-31T08:50:26;970.3;;;18.1;69.9
68873;BME280;55907;50.806;12.882;2023-07-31T08:53:27;970.3;;;18.1;69.7
68873;BME280;55907;50.806;12.882;2023-07-31T08:56:28;970.3;;;18.1;69.6
68873;BME280;55907;50.806;12.882;2023-07-31T08:59:31;970.3;;;18.2;69.3
68873;BME280;55907;50.806;12.882;2023-07-31T09:02:38;970.2;;;18.2;68.9
68873;BME280;55907;50.806;12.882;2023-07-31T09:05:33;970.3;;;18.2;69.0
68873;BME280;55907;50.806;12.882;2023-07-31T09:08:35;970.3;;;18.3;69.0
68873;BME280;55907;50.806;12.882;2023-07-31T09:11:36;970.2;;;18.3;68.9
68873;BME280;55907;50.806;12.882;2023-07-31T09:14:37;970.2;;;18.4;68.9
68873;BME280;55907;50.806;12.882;2023-07-31T09:17:38;970.2;;;18.4;68.7
68873;BME280;55907;50.806;12.882;2023-07-31T09:20:40;970.2;;;18.4;68.4
68873;BME280;55907;50.806;12.882;2023-07-31T09:23:42;970.2;;;18.5;68.7
68873;BME280;55907;50.806;12.882;2023-07-31T09:26:43;970.2;;;18.5;68.2
68873;BME280;55907;50.806;12.882;2023-07-31T09:29:44;970.1;;;18.5;67.8
68873;BME280;55907;50.806;12.882;2023-07-31T09:32:47;970.1;;;18.6;67.8
68873;BME280;55907;50.806;12.882;2023-07-31T09:35:47;970.2;;;18.7;67.7
68873;BME280;55907;50.806;12.882;2023-07-31T09:38:48;970.1;;;18.8;66.9
68873;BME280;55907;50.806;12.882;2023-07-31T09:41:54;970.1;;;18.8;67.3
68873;BME280;55907;50.806;12.882;2023-07-31T09:44:51;970.1;;;19.0;67.3
68873;BME280;55907;50.806;12.882;2023-07-31T09:47:53;970.0;;;19.1;66.9
68873;BME280;55907;50.806;12.882;2023-07-31T09:50:54;970.0;;;19.2;66.2
68873;BME280;55907;50.806;12.882;2023-07-31T09:53:56;970.0;;;19.3;65.9
68873;BME280;55907;50.806;12.882;2023-07-31T09:56:58;970.0;;;19.4;65.1
68873;BME280;55907;50.806;12.882;2023-07-31T09:59:58;970.0;;;19.5;64.8
68873;BME280;55907;50.806;12.882;2023-07-31T10:03:01;969.9;;;19.9;64.5
68873;BME280;55907;50.806;12.882;2023-07-31T10:06:02;969.9;;;20.1;62.6
68873;BME280;55907;50.806;12.882;2023-07-31T10:09:05;969.8;;;20.4;62.4
68873;BME280;55907;50.806;12.882;2023-07-31T10:12:06;969.8;;;20.7;61.8
68873;BME280;55907;50.806;12.882;2023-07-31T10:15:06;969.8;;;20.7;61.1
68873;BME280;55907;50.806;12.882;2023-07-31T10:18:07;969.7;;;20.6;61.1
68873;BME280;55907;50.806;12.882;2023-07-31T10:21:09;969.8;;;20.6;61.6
68873;BME280;55907;50.806;12.882;2023-07-31T10:24:11;969.7;;;20.6;61.2
68873;BME280;55907;50.806;12.882;2023-07-31T10:27:11;969.7;;;20.7;60.7
68873;BME280;55907;50.806;12.882;2023-07-31T10:30:15;969.7;;;20.6;61.0
68873;BME280;55907;50.806;12.882;2023-07-31T10:33:14;969.7;;;20.5;61.5
68873;BME280;55907;50.806;12.882;2023-07-31T10:36:17;969.7;;;20.4;62.5
68873;BME280;55907;50.806;12.882;2023-07-31T10:39:34;969.8;;;20.4;63.6
68873;BME280;55907;50.806;12.882;2023-07-31T10:42:18;969.8;;;20.4;63.9
68873;BME280;55907;50.806;12.882;2023-07-31T10:45:25;969.7;;;20.3;63.9
68873;BME280;55907;50.806;12.882;2023-07-31T10:48:21;969.6;;;20.5;63.7
68873;BME280;55907;50.806;12.882;2023-07-31T10:51:22;969.6;;;20.8;62.4
68873;BME280;55907;50.806;12.882;2023-07-31T10:54:24;969.6;;;21.4;61.3
68873;BME280;55907;50.806;12.882;2023-07-31T10:57:25;969.5;;;21.9;59.1
68873;BME280;55907;50.806;12.882;2023-07-31T11:00:28;969.5;;;22.1;59.0
68873;BME280;55907;50.806;12.882;2023-07-31T11:03:40;969.4;;;22.1;58.9
68873;BME280;55907;50.806;12.882;2023-07-31T11:06:29;969.6;;;22.3;58.3
68873;BME280;55907;50.806;12.882;2023-07-31T11:09:32;969.4;;;22.0;57.3
68873;BME280;55907;50.806;12.882;2023-07-31T11:12:33;969.4;;;21.9;57.2
68873;BME280;55907;50.806;12.882;2023-07-31T11:15:34;969.4;;;22.0;57.2
68873;BME280;55907;50.806;12.882;2023-07-31T11:18:35;969.3;;;22.0;57.2
68873;BME280;55907;50.806;12.882;2023-07-31T11:21:36;969.3;;;22.0;56.8
68873;BME280;55907;50.806;12.882;2023-07-31T11:24:38;969.4;;;22.0;57.1
68873;BME280;55907;50.806;12.882;2023-07-31T11:27:39;969.3;;;22.0;56.1
68873;BME280;55907;50.806;12.882;2023-07-31T11:30:42;969.3;;;22.2;56.2
68873;BME280;55907;50.806;12.882;2023-07-31T11:33:42;969.2;;;22.2;54.7
68873;BME280;55907;50.806;12.882;2023-07-31T11:36:52;969.1;;;22.4;54.9
68873;BME280;55907;50.806;12.882;2023-07-31T11:39:58;969.1;;;22.6;54.2
68873;BME280;55907;50.806;12.882;2023-07-31T11:42:46;969.1;;;22.6;53.9
68873;BME280;55907;50.806;12.882;2023-07-31T11:45:49;969.1;;;22.7;54.0
68873;BME280;55907;50.806;12.882;2023-07-31T11:48:49;969.0;;;22.8;53.8
68873;BME280;55907;50.806;12.882;2023-07-31T11:54:52;969.0;;;22.7;53.5
68873;BME280;55907;50.806;12.882;2023-07-31T11:57:56;969.2;;;22.2;53.3
68873;BME280;55907;50.806;12.882;2023-07-31T12:00:55;969.1;;;22.1;54.2
68873;BME280;55907;50.806;12.882;2023-07-31T12:03:56;969.0;;;22.1;54.2
68873;BME280;55907;50.806;12.882;2023-07-31T12:06:59;969.0;;;22.1;54.1
68873;BME280;55907;50.806;12.882;2023-07-31T12:09:59;968.9;;;22.5;53.2
68873;BME280;55907;50.806;12.882;2023-07-31T12:13:03;968.9;;;22.8;52.0
68873;BME280;55907;50.806;12.882;2023-07-31T12:16:03;968.7;;;23.1;51.6
68873;BME280;55907;50.806;12.882;2023-07-31T12:19:03;968.7;;;23.2;51.3
68873;BME280;55907;50.806;12.882;2023-07-31T12:22:10;968.6;;;23.0;50.8
68873;BME280;55907;50.806;12.882;2023-07-31T12:25:06;968.7;;;22.9;51.2
68873;BME280;55907;50.806;12.882;2023-07-31T12:28:07;968.7;;;22.8;51.2
68873;BME280;55907;50.806;12.882;2023-07-31T12:31:10;968.6;;;22.9;50.8
68873;BME280;55907;50.806;12.882;2023-07-31T12:34:16;968.6;;;22.9;51.0
68873;BME280;55907;50.806;12.882;2023-07-31T12:37:12;968.6;;;23.3;51.0
68873;BME280;55907;50.806;12.882;2023-07-31T12:40:13;968.7;;;23.2;50.2
68873;BME280;55907;50.806;12.882;2023-07-31T12:43:15;968.6;;;23.2;49.8
68873;BME280;55907;50.806;12.882;2023-07-31T12:46:15;968.6;;;23.1;50.3
68873;BME280;55907;50.806;12.882;2023-07-31T12:49:17;968.4;;;23.0;50.8
68873;BME280;55907;50.806;12.882;2023-07-31T12:52:18;968.4;;;23.0;51.2
68873;BME280;55907;50.806;12.882;2023-07-31T12:55:20;968.3;;;23.1;51.8
68873;BME280;55907;50.806;12.882;2023-07-31T12:58:21;968.3;;;23.1;51.1
68873;BME280;55907;50.806;12.882;2023-07-31T13:01:22;968.3;;;22.9;51.2
68873;BME280;55907;50.806;12.882;2023-07-31T13:04:24;968.3;;;23.0;51.8
68873;BME280;55907;50.806;12.882;2023-07-31T13:07:26;968.3;;;22.9;51.5
68873;BME280;55907;50.806;12.882;2023-07-31T13:10:27;968.2;;;22.9;51.6
68873;BME280;55907;50.806;12.882;2023-07-31T13:13:28;968.2;;;23.0;51.6
68873;BME280;55907;50.806;12.882;2023-07-31T13:16:29;968.2;;;23.2;51.5
68873;BME280;55907;50.806;12.882;2023-07-31T13:19:31;968.3;;;23.5;50.9
68873;BME280;55907;50.806;12.882;2023-07-31T13:22:32;968.2;;;23.7;50.8
68873;BME280;55907;50.806;12.882;2023-07-31T13:25:33;968.2;;;23.7;50.9
68873;BME280;55907;50.806;12.882;2023-07-31T13:31:36;968.0;;;23.5;51.2
68873;BME280;55907;50.806;12.882;2023-07-31T13:34:37;967.9;;;23.9;50.9
68873;BME280;55907;50.806;12.882;2023-07-31T13:37:39;967.9;;;24.0;50.0
68873;BME280;55907;50.806;12.882;2023-07-31T13:40:40;967.8;;;24.0;50.1
68873;BME280;55907;50.806;12.882;2023-07-31T13:43:42;967.8;;;24.2;49.8
68873;BME280;55907;50.806;12.882;2023-07-31T13:46:43;967.9;;;24.0;49.5
68873;BME280;55907;50.806;12.882;2023-07-31T13:49:44;967.7;;;23.8;50.5
68873;BME280;55907;50.806;12.882;2023-07-31T13:52:46;967.8;;;23.6;50.9
68873;BME280;55907;50.806;12.882;2023-07-31T13:55:47;967.7;;;23.1;51.9
68873;BME280;55907;50.806;12.882;2023-07-31T13:58:49;967.7;;;22.8;52.8
68873;BME280;55907;50.806;12.882;2023-07-31T14:01:50;967.8;;;22.5;52.9
68873;BME280;55907;50.806;12.882;2023-07-31T14:04:51;967.8;;;22.2;54.1
68873;BME280;55907;50.806;12.882;2023-07-31T14:07:53;967.8;;;22.1;54.9
68873;BME280;55907;50.806;12.882;2023-07-31T14:10:55;967.8;;;22.2;54.7
68873;BME280;55907;50.806;12.882;2023-07-31T14:13:55;967.8;;;22.3;53.9
68873;BME280;55907;50.806;12.882;2023-07-31T14:16:57;967.7;;;22.6;53.0
68873;BME280;55907;50.806;12.882;2023-07-31T14:19:58;967.7;;;22.7;52.3
68873;BME280;55907;50.806;12.882;2023-07-31T14:23:00;967.7;;;22.9;52.1
68873;BME280;55907;50.806;12.882;2023-07-31T14:26:01;967.7;;;22.8;51.7
68873;BME280;55907;50.806;12.882;2023-07-31T14:29:02;967.7;;;22.8;51.9
68873;BME280;55907;50.806;12.882;2023-07-31T14:32:04;967.7;;;22.6;51.9
68873;BME280;55907;50.806;12.882;2023-07-31T14:35:05;967.6;;;22.7;52.3
68873;BME280;55907;50.806;12.882;2023-07-31T14:38:06;967.4;;;23.0;52.4
68873;BME280;55907;50.806;12.882;2023-07-31T14:41:08;967.5;;;23.2;50.9
68873;BME280;55907;50.806;12.882;2023-07-31T14:44:09;967.6;;;23.0;50.3
68873;BME280;55907;50.806;12.882;2023-07-31T14:47:11;967.7;;;22.9;50.3
68873;BME280;55907;50.806;12.882;2023-07-31T14:50:12;967.6;;;22.9;51.0
68873;BME280;55907;50.806;12.882;2023-07-31T14:53:14;967.7;;;23.0;51.4
68873;BME280;55907;50.806;12.882;2023-07-31T14:56:15;967.8;;;22.6;51.2
68873;BME280;55907;50.806;12.882;2023-07-31T14:59:16;967.8;;;22.4;52.1
68873;BME280;55907;50.806;12.882;2023-07-31T15:02:18;967.8;;;22.2;52.4
68873;BME280;55907;50.806;12.882;2023-07-31T15:05:19;967.7;;;22.2;52.9
68873;BME280;55907;50.806;12.882;2023-07-31T15:08:20;967.8;;;22.3;53.0
68873;BME280;55907;50.806;12.882;2023-07-31T15:11:22;967.9;;;22.2;52.3
68873;BME280;55907;50.806;12.882;2023-07-31T15:14:24;967.9;;;22.0;52.3
68873;BME280;55907;50.806;12.882;2023-07-31T15:17:25;967.8;;;21.8;52.7
68873;BME280;55907;50.806;12.882;2023-07-31T15:20:26;967.8;;;21.5;53.4
68873;BME280;55907;50.806;12.882;2023-07-31T15:23:27;967.8;;;21.4;53.8
68873;BME280;55907;50.806;12.882;2023-07-31T15:26:29;967.8;;;21.4;54.3
68873;BME280;55907;50.806;12.882;2023-07-31T15:29:30;967.7;;;21.3;54.2
68873;BME280;55907;50.806;12.882;2023-07-31T15:32:32;967.6;;;21.2;54.3
68873;BME280;55907;50.806;12.882;2023-07-31T15:35:33;967.4;;;21.3;54.4
68873;BME280;55907;50.806;12.882;2023-07-31T15:38:34;967.5;;;21.4;54.8
68873;BME280;55907;50.806;12.882;2023-07-31T15:41:36;967.4;;;21.5;54.8
68873;BME280;55907;50.806;12.882;2023-07-31T15:44:37;967.3;;;21.5;54.6
68873;BME280;55907;50.806;12.882;2023-07-31T15:47:39;967.3;;;21.6;54.2
68873;BME280;55907;50.806;12.882;2023-07-31T15:50:40;967.3;;;21.7;54.1
68873;BME280;55907;50.806;12.882;2023-07-31T15:53:41;967.3;;;22.0;54.2
68873;BME280;55907;50.806;12.882;2023-07-31T15:56:43;967.2;;;22.0;53.9
68873;BME280;55907;50.806;12.882;2023-07-31T15:59:44;967.3;;;22.0;54.2
68873;BME280;55907;50.806;12.882;2023-07-31T16:02:46;967.2;;;21.8;54.5
68873;BME280;55907;50.806;12.882;2023-07-31T16:05:47;967.2;;;21.8;54.8
68873;BME280;55907;50.806;12.882;2023-07-31T16:08:48;967.2;;;21.7;55.3
68873;BME280;55907;50.806;12.882;2023-07-31T16:11:50;967.2;;;21.6;55.3
68873;BME280;55907;50.806;12.882;2023-07-31T16:14:51;967.2;;;21.5;55.6
68873;BME280;55907;50.806;12.882;2023-07-31T16:17:53;967.2;;;21.5;55.5
68873;BME280;55907;50.806;12.882;2023-07-31T16:20:54;967.1;;;21.5;56.1
68873;BME280;55907;50.806;12.882;2023-07-31T16:23:55;967.0;;;21.5;55.8
68873;BME280;55907;50.806;12.882;2023-07-31T16:26:57;967.1;;;21.4;56.2
68873;BME280;55907;50.806;12.882;2023-07-31T16:29:58;967.1;;;21.4;56.2
68873;BME280;55907;50.806;12.882;2023-07-31T16:33:00;967.0;;;21.3;56.6
68873;BME280;55907;50.806;12.882;2023-07-31T16:36:01;967.0;;;21.3;56.6
68873;BME280;55907;50.806;12.882;2023-07-31T16:39:02;967.0;;;21.3;56.8
68873;BME280;55907;50.806;12.882;2023-07-31T16:42:05;966.9;;;21.2;57.3
68873;BME280;55907;50.806;12.882;2023-07-31T16:45:06;966.8;;;21.3;56.8
68873;BME280;55907;50.806;12.882;2023-07-31T16:48:07;966.8;;;21.3;57.0
68873;BME280;55907;50.806;12.882;2023-07-31T16:51:08;966.9;;;21.3;56.7
68873;BME280;55907;50.806;12.882;2023-07-31T16:54:09;966.9;;;21.3;56.8
68873;BME280;55907;50.806;12.882;2023-07-31T16:57:11;966.9;;;21.3;57.0
68873;BME280;55907;50.806;12.882;2023-07-31T17:00:12;966.9;;;21.2;57.4